createdAt,value
2023-05-03T00:00:49.316Z,19.6
2023-05-03T00:02:49.018Z,19.4
2023-05-03T00:04:51.801Z,19.3
2023-05-03T00:06:49.082Z,19.5
2023-05-03T00:08:48.895Z,19.5
2023-05-03T00:10:48.921Z,19.6
2023-05-03T00:12:49.002Z,19.5
2023-05-03T00:14:51.977Z,19.7
2023-05-03T00:16:48.935Z,20.0
2023-05-03T00:18:49.485Z,20.0
2023-05-03T00:20:48.997Z,19.8
2023-05-03T00:22:48.901Z,19.7
2023-05-03T00:24:48.974Z,19.8
2023-05-03T00:26:48.938Z,19.8
2023-05-03T00:28:48.956Z,19.8
2023-05-03T00:30:49.352Z,19.6
2023-05-03T00:32:48.974Z,19.4
2023-05-03T00:34:48.961Z,19.2
2023-05-03T00:36:48.956Z,19.2
2023-05-03T00:39:48.924Z,19.3
2023-05-03T00:41:49.045Z,19.3
2023-05-03T00:43:48.967Z,19.3
2023-05-03T00:45:49.008Z,19.5
2023-05-03T00:47:49.097Z,19.5
2023-05-03T00:49:48.908Z,19.5
2023-05-03T00:51:48.944Z,19.3
2023-05-03T00:53:48.869Z,19.5
2023-05-03T00:55:48.865Z,19.5
2023-05-03T00:57:48.908Z,19.5
2023-05-03T00:59:48.913Z,19.5
2023-05-03T01:01:49.091Z,19.5
2023-05-03T01:03:49.091Z,19.6
2023-05-03T01:05:48.949Z,19.6
2023-05-03T01:07:48.937Z,19.5
2023-05-03T01:09:48.987Z,19.5
2023-05-03T01:11:49.127Z,19.1
2023-05-03T01:13:50.296Z,19.2
2023-05-03T01:15:48.949Z,19.3
2023-05-03T01:17:49.160Z,19.3
2023-05-03T01:19:48.990Z,19.6
2023-05-03T01:21:48.953Z,19.6
2023-05-03T01:23:48.902Z,19.7
2023-05-03T01:25:49.080Z,19.9
2023-05-03T01:27:48.934Z,19.6
2023-05-03T01:29:53.152Z,19.7
2023-05-03T01:31:49.403Z,19.5
2023-05-03T01:33:49.032Z,19.8
2023-05-03T01:35:49.137Z,19.8
2023-05-03T01:37:52.007Z,19.6
2023-05-03T01:39:49.095Z,19.8
2023-05-03T01:43:08.776Z,19.6
2023-05-03T01:45:08.837Z,19.4
2023-05-03T01:47:08.826Z,19.4
2023-05-03T01:49:08.758Z,19.5
2023-05-03T01:51:08.632Z,19.7
2023-05-03T01:54:08.665Z,19.8
2023-05-03T01:56:08.635Z,19.4
2023-05-03T01:58:08.717Z,19.5
2023-05-03T02:00:08.666Z,19.7
2023-05-03T02:02:08.662Z,19.7
2023-05-03T02:04:08.672Z,19.7
2023-05-03T02:06:08.671Z,19.6
2023-05-03T02:08:11.659Z,19.9
2023-05-03T02:10:08.689Z,20.1
2023-05-03T02:12:08.701Z,20.4
2023-05-03T02:14:08.686Z,20.6
2023-05-03T02:16:08.694Z,20.3
2023-05-03T02:18:08.745Z,20.4
2023-05-03T02:20:08.701Z,20.1
2023-05-03T02:22:08.600Z,19.9
2023-05-03T02:24:08.671Z,19.4
2023-05-03T02:26:08.713Z,19.1
2023-05-03T02:28:08.710Z,19.4
2023-05-03T02:30:08.780Z,19.6
2023-05-03T02:32:08.723Z,19.9
2023-05-03T02:34:08.707Z,20.0
2023-05-03T02:36:08.732Z,19.9
2023-05-03T02:38:08.669Z,20.1
2023-05-03T02:40:08.647Z,20.2
2023-05-03T02:42:09.418Z,20.3
2023-05-03T02:44:08.641Z,20.3
2023-05-03T02:46:08.782Z,20.0
2023-05-03T02:48:08.834Z,20.0
2023-05-03T02:50:08.822Z,20.2
2023-05-03T02:52:08.671Z,20.2
2023-05-03T02:54:08.712Z,19.9
2023-05-03T02:56:08.724Z,20.4
2023-05-03T02:58:08.678Z,20.5
2023-05-03T03:00:08.685Z,20.5
2023-05-03T03:02:08.720Z,20.7
2023-05-03T03:04:11.441Z,21.0
2023-05-03T03:06:08.702Z,21.1
2023-05-03T03:08:08.677Z,21.0
2023-05-03T03:10:13.067Z,20.9
2023-05-03T03:12:08.724Z,20.8
2023-05-03T03:14:08.690Z,20.6
2023-05-03T03:16:08.881Z,20.8
2023-05-03T03:18:08.811Z,20.6
2023-05-03T03:20:08.690Z,20.7
2023-05-03T03:22:08.806Z,20.9
2023-05-03T03:24:08.705Z,21.0
2023-05-03T03:26:08.734Z,21.0
2023-05-03T03:28:08.737Z,21.1
2023-05-03T03:30:08.672Z,21.1
2023-05-03T03:32:08.906Z,21.3
2023-05-03T03:34:08.755Z,21.2
2023-05-03T03:36:08.793Z,21.3
2023-05-03T03:38:08.826Z,21.2
2023-05-03T03:40:08.826Z,21.3
2023-05-03T03:42:08.921Z,21.2
2023-05-03T03:44:08.745Z,21.4
2023-05-03T03:46:08.766Z,21.5
2023-05-03T03:48:08.815Z,21.6
2023-05-03T03:50:11.990Z,21.6
2023-05-03T03:52:08.751Z,21.3
2023-05-03T03:54:08.864Z,21.7
2023-05-03T03:56:08.750Z,21.5
2023-05-03T03:58:08.707Z,21.1
2023-05-03T04:00:08.707Z,21.0
2023-05-03T04:02:08.662Z,20.8
2023-05-03T04:04:08.794Z,20.8
2023-05-03T04:06:09.185Z,20.7
2023-05-03T04:08:08.715Z,20.4
2023-05-03T04:10:08.915Z,20.3
2023-05-03T04:12:12.434Z,20.4
2023-05-03T04:14:08.846Z,20.3
2023-05-03T04:16:08.766Z,20.1
2023-05-03T04:18:08.904Z,20.3
2023-05-03T04:20:08.924Z,20.6
2023-05-03T04:22:08.778Z,20.6
2023-05-03T04:24:08.774Z,20.6
2023-05-03T04:26:10.351Z,20.7
2023-05-03T04:28:08.756Z,20.6
2023-05-03T04:30:09.137Z,20.4
2023-05-03T04:32:08.733Z,20.4
2023-05-03T04:34:08.746Z,20.2
2023-05-03T04:36:08.853Z,20.2
2023-05-03T04:38:08.930Z,20.0
2023-05-03T04:40:09.140Z,19.7
2023-05-03T04:42:09.020Z,20.1
2023-05-03T04:44:08.756Z,20.0
2023-05-03T04:46:08.836Z,20.0
2023-05-03T04:48:10.519Z,20.3
2023-05-03T04:50:08.731Z,20.4
2023-05-03T04:52:08.720Z,20.4
2023-05-03T04:54:08.778Z,20.2
2023-05-03T04:56:08.705Z,20.3
2023-05-03T04:58:08.756Z,20.3
2023-05-03T05:00:08.869Z,20.3
2023-05-03T05:02:08.903Z,20.2
2023-05-03T05:04:08.761Z,20.0
2023-05-03T05:06:08.880Z,19.9
2023-05-03T05:08:08.818Z,20.4
2023-05-03T05:10:08.777Z,20.5
2023-05-03T05:12:08.966Z,20.5
2023-05-03T05:14:11.725Z,20.4
2023-05-03T05:16:08.838Z,20.7
2023-05-03T05:18:08.768Z,20.6
2023-05-03T05:20:08.780Z,20.4
2023-05-03T05:22:08.799Z,20.4
2023-05-03T05:24:08.758Z,20.4
2023-05-03T05:26:08.781Z,20.5
2023-05-03T05:28:08.751Z,20.3
2023-05-03T05:30:08.787Z,20.4
2023-05-03T05:32:08.778Z,22.0
2023-05-03T05:34:08.734Z,21.0
2023-05-03T05:37:09.058Z,22.6
2023-05-03T05:39:08.743Z,20.6
2023-05-03T05:41:08.933Z,20.2
2023-05-03T05:43:09.161Z,19.8
2023-05-03T05:45:11.934Z,20.3
2023-05-03T05:47:09.108Z,19.8
2023-05-03T05:49:08.738Z,20.1
2023-05-03T05:51:08.743Z,20.3
2023-05-03T05:53:09.020Z,20.2
2023-05-03T05:55:08.754Z,20.1
2023-05-03T05:57:08.897Z,20.3
2023-05-03T05:59:08.847Z,20.3
2023-05-03T06:01:08.979Z,20.1
2023-05-03T06:03:10.387Z,20.0
2023-05-03T06:05:08.762Z,20.1
2023-05-03T06:07:08.751Z,19.9
2023-05-03T06:09:23.010Z,19.7
2023-05-03T06:11:13.174Z,19.6
2023-05-03T06:13:09.250Z,19.6
2023-05-03T06:15:08.786Z,19.7
2023-05-03T06:17:08.980Z,19.6
2023-05-03T06:19:08.863Z,19.3
2023-05-03T06:21:10.252Z,19.5
2023-05-03T06:23:08.845Z,19.3
2023-05-03T06:25:08.861Z,19.7
2023-05-03T06:27:08.866Z,19.6
2023-05-03T06:29:08.793Z,19.5
2023-05-03T06:31:08.916Z,19.4
2023-05-03T06:33:08.859Z,19.2
2023-05-03T06:35:08.826Z,19.3
2023-05-03T06:37:09.342Z,19.2
2023-05-03T06:39:08.832Z,19.5
2023-05-03T06:41:08.911Z,19.6
2023-05-03T06:43:08.854Z,19.7
2023-05-03T06:45:08.873Z,19.7
2023-05-03T06:47:11.765Z,20.0
2023-05-03T06:49:08.866Z,19.9
2023-05-03T06:51:08.772Z,19.7
2023-05-03T06:53:08.793Z,19.7
2023-05-03T06:55:08.980Z,20.0
2023-05-03T06:57:08.783Z,19.8
2023-05-03T06:59:08.903Z,19.7
2023-05-03T07:01:08.830Z,20.1
2023-05-03T07:03:10.941Z,20.0
2023-05-03T07:05:08.854Z,19.8
2023-05-03T07:07:09.017Z,20.0
2023-05-03T07:09:08.874Z,20.2
2023-05-03T07:11:09.008Z,20.1
2023-05-03T07:13:08.838Z,20.0
2023-05-03T07:15:08.929Z,20.0
2023-05-03T07:17:08.796Z,20.4
2023-05-03T07:19:08.805Z,20.6
2023-05-03T07:21:09.622Z,20.5
2023-05-03T07:23:09.462Z,20.9
2023-05-03T07:25:09.065Z,20.8
2023-05-03T07:27:08.850Z,20.8
2023-05-03T07:29:08.919Z,21.0
2023-05-03T07:31:08.832Z,21.1
2023-05-03T07:33:08.849Z,21.3
2023-05-03T07:35:08.819Z,21.5
2023-05-03T07:37:08.838Z,21.4
2023-05-03T07:39:08.778Z,21.3
2023-05-03T07:41:09.093Z,21.4
2023-05-03T07:43:08.938Z,21.6
2023-05-03T07:45:09.016Z,21.6
2023-05-03T07:47:08.855Z,21.4
2023-05-03T07:49:12.293Z,21.3
2023-05-03T07:51:08.896Z,21.5
2023-05-03T07:53:08.862Z,21.5
2023-05-03T07:57:08.812Z,21.0
2023-05-03T07:59:11.680Z,21.1
2023-05-03T08:03:09.016Z,21.1
2023-05-03T08:07:09.026Z,21.3
2023-05-03T08:09:08.954Z,21.4
2023-05-03T08:13:08.975Z,21.9
2023-05-03T08:17:32.923Z,21.5
2023-05-03T08:19:37.814Z,21.4
2023-05-03T08:21:32.924Z,21.5
2023-05-03T08:23:36.238Z,21.3
2023-05-03T08:25:32.877Z,21.2
2023-05-03T08:27:32.903Z,21.3
2023-05-03T08:29:32.901Z,21.2
2023-05-03T08:31:32.857Z,21.2
2023-05-03T08:33:32.845Z,21.1
2023-05-03T08:35:32.963Z,20.7
2023-05-03T08:37:32.913Z,21.0
2023-05-03T08:39:33.085Z,21.2
2023-05-03T08:41:32.992Z,21.1
2023-05-03T08:43:32.857Z,20.9
2023-05-03T08:45:32.863Z,20.5
2023-05-03T08:47:32.959Z,20.5
2023-05-03T08:49:32.985Z,20.6
2023-05-03T08:51:35.847Z,20.4
2023-05-03T08:53:32.917Z,20.3
2023-05-03T08:55:32.930Z,20.4
2023-05-03T08:57:32.863Z,20.4
2023-05-03T08:59:32.930Z,20.4
2023-05-03T09:01:32.923Z,20.3
2023-05-03T09:03:32.953Z,20.2
2023-05-03T09:05:32.884Z,20.3
2023-05-03T09:07:32.897Z,20.3
2023-05-03T09:09:32.904Z,19.8
2023-05-03T09:11:32.879Z,19.6
2023-05-03T09:13:33.052Z,19.2
2023-05-03T09:15:32.913Z,19.5
2023-05-03T09:17:33.003Z,19.4
2023-05-03T09:19:32.891Z,19.6
2023-05-03T09:21:36.343Z,19.7
2023-05-03T09:23:32.912Z,19.5
2023-05-03T09:25:32.887Z,19.3
2023-05-03T09:27:32.892Z,19.3
2023-05-03T09:29:32.910Z,19.4
2023-05-03T09:31:32.992Z,19.5
2023-05-03T09:33:32.927Z,19.8
2023-05-03T09:35:32.866Z,19.8
2023-05-03T09:37:32.904Z,19.6
2023-05-03T09:39:33.002Z,19.5
2023-05-03T09:41:32.915Z,19.4
2023-05-03T09:43:32.916Z,19.6
2023-05-03T09:45:35.319Z,19.7
2023-05-03T09:47:33.117Z,19.7
2023-05-03T09:49:33.429Z,19.5
2023-05-03T09:51:32.984Z,19.6
2023-05-03T09:53:32.991Z,19.8
2023-05-03T09:55:32.941Z,19.7
2023-05-03T09:57:34.662Z,20.0
2023-05-03T09:59:33.481Z,20.1
2023-05-03T10:01:32.900Z,20.2
2023-05-03T10:03:33.180Z,20.5
2023-05-03T10:05:32.964Z,20.4
2023-05-03T10:07:32.973Z,20.5
2023-05-03T10:09:33.025Z,20.6
2023-05-03T10:11:32.937Z,20.7
2023-05-03T10:13:32.941Z,20.9
2023-05-03T10:15:32.997Z,20.6
2023-05-03T10:17:47.285Z,20.5
2023-05-03T10:19:32.995Z,20.6
2023-05-03T10:21:33.088Z,20.5
2023-05-03T10:23:36.035Z,20.7
2023-05-03T10:25:33.062Z,20.8
2023-05-03T10:27:33.039Z,20.9
2023-05-03T10:29:32.963Z,20.9
2023-05-03T10:31:32.973Z,20.7
2023-05-03T10:33:33.070Z,20.4
2023-05-03T10:35:32.996Z,20.3
2023-05-03T10:37:33.007Z,20.6
2023-05-03T10:39:32.963Z,20.3
2023-05-03T10:41:32.957Z,20.5
2023-05-03T10:43:33.040Z,20.5
2023-05-03T10:45:32.968Z,20.6
2023-05-03T10:47:32.975Z,20.7
2023-05-03T10:49:33.039Z,20.9
2023-05-03T10:51:33.069Z,20.9
2023-05-03T10:53:32.977Z,21.0
2023-05-03T10:55:33.131Z,21.1
2023-05-03T10:57:32.974Z,21.0
2023-05-03T10:59:33.600Z,21.0
2023-05-03T11:01:33.072Z,20.9
2023-05-03T11:03:33.181Z,20.7
2023-05-03T11:06:33.061Z,20.5
2023-05-03T11:08:32.953Z,20.7
2023-05-03T11:10:32.999Z,20.7
2023-05-03T11:12:33.096Z,20.5
2023-05-03T11:14:33.066Z,20.2
2023-05-03T11:16:33.075Z,20.6
2023-05-03T11:18:32.978Z,20.7
2023-05-03T11:20:33.249Z,20.6
2023-05-03T11:22:33.189Z,20.3
2023-05-03T11:24:32.994Z,20.1
2023-05-03T11:26:33.001Z,19.8
2023-05-03T11:28:33.412Z,20.0
2023-05-03T11:30:33.123Z,20.0
2023-05-03T11:32:33.041Z,19.9
2023-05-03T11:34:33.105Z,20.0
2023-05-03T11:36:33.252Z,19.9
2023-05-03T11:38:33.011Z,19.8
2023-05-03T11:40:33.161Z,19.8
2023-05-03T11:42:33.037Z,19.6
2023-05-03T11:44:33.149Z,19.3
2023-05-03T11:46:33.165Z,19.2
2023-05-03T11:48:33.628Z,19.2
2023-05-03T11:50:33.282Z,19.1
2023-05-03T11:52:33.225Z,19.1
2023-05-03T11:54:33.201Z,18.9
2023-05-03T11:56:36.193Z,18.8
2023-05-03T11:58:33.302Z,18.7
2023-05-03T12:00:33.197Z,18.7
2023-05-03T12:02:33.282Z,18.5
2023-05-03T12:04:33.442Z,18.6
2023-05-03T12:06:33.877Z,18.5
2023-05-03T12:08:36.108Z,18.2
2023-05-03T12:10:33.635Z,18.4
2023-05-03T12:12:36.336Z,18.5
2023-05-03T12:14:33.438Z,18.7
2023-05-03T12:16:35.923Z,18.6
2023-05-03T12:18:33.812Z,18.4
2023-05-03T12:21:28.454Z,18.3
2023-05-03T12:22:33.265Z,18.5
2023-05-03T12:24:34.003Z,18.8
2023-05-03T12:26:33.948Z,19.0
2023-05-03T12:28:33.431Z,18.6
2023-05-03T12:30:33.948Z,18.8
2023-05-03T12:32:33.298Z,18.9
2023-05-03T12:34:35.705Z,18.9
2023-05-03T12:36:36.871Z,18.9
2023-05-03T12:38:36.223Z,19.0
2023-05-03T12:40:35.055Z,18.8
2023-05-03T12:42:34.008Z,18.9
2023-05-03T12:46:35.060Z,19.2
2023-05-03T12:48:33.694Z,19.3
2023-05-03T12:50:37.722Z,19.1
2023-05-03T12:52:38.052Z,19.0
2023-05-03T12:54:34.121Z,19.0
2023-05-03T12:56:33.769Z,19.1
2023-05-03T13:00:36.366Z,19.4
2023-05-03T13:06:42.322Z,19.3
2023-05-03T13:08:35.196Z,19.3
2023-05-03T13:10:36.913Z,19.4
2023-05-03T13:12:33.319Z,19.3
2023-05-03T13:14:33.092Z,19.5
2023-05-03T13:16:42.237Z,19.7
2023-05-03T13:18:33.399Z,19.9
2023-05-03T13:22:33.178Z,19.8
2023-05-03T13:24:33.299Z,19.7
2023-05-03T13:26:33.279Z,19.5
2023-05-03T13:28:33.251Z,19.6
2023-05-03T13:30:33.281Z,19.6
2023-05-03T13:32:33.273Z,19.7
2023-05-03T13:34:33.527Z,19.6
2023-05-03T13:36:33.098Z,19.4
2023-05-03T13:38:33.271Z,19.1
2023-05-03T13:40:33.207Z,19.3
2023-05-03T13:42:33.232Z,19.1
2023-05-03T13:44:33.381Z,18.8
2023-05-03T13:46:33.227Z,18.9
2023-05-03T13:48:35.943Z,18.8
2023-05-03T13:50:33.285Z,19.0
2023-05-03T13:52:33.373Z,19.4
2023-05-03T13:54:33.375Z,19.2
2023-05-03T13:56:33.217Z,19.4
2023-05-03T13:58:33.302Z,19.5
2023-05-03T14:00:34.448Z,19.4
2023-05-03T14:02:33.314Z,19.3
2023-05-03T14:04:33.343Z,19.1
2023-05-03T14:06:38.397Z,19.3
2023-05-03T14:08:33.289Z,19.5
2023-05-03T14:10:33.271Z,19.5
2023-05-03T14:12:33.233Z,19.4
2023-05-03T14:14:33.108Z,19.2
2023-05-03T14:16:40.680Z,18.9
2023-05-03T14:18:33.495Z,18.6
2023-05-03T14:20:33.651Z,18.8
2023-05-03T14:22:33.270Z,18.9
2023-05-03T14:24:33.300Z,18.7
2023-05-03T14:26:33.205Z,18.7
2023-05-03T14:28:33.484Z,18.8
2023-05-03T14:32:33.343Z,18.9
2023-05-03T14:38:58.788Z,19.0
2023-05-03T14:40:58.566Z,18.9
2023-05-03T14:42:58.547Z,22.0
2023-05-03T14:44:58.636Z,19.0
2023-05-03T14:46:58.644Z,19.8
2023-05-03T14:48:58.603Z,21.1
2023-05-03T14:50:58.633Z,21.2
2023-05-03T14:53:03.436Z,20.2
2023-05-03T14:54:58.723Z,20.5
2023-05-03T14:56:58.879Z,20.9
2023-05-03T14:58:58.541Z,21.1
2023-05-03T15:00:58.816Z,21.1
2023-05-03T15:02:58.746Z,21.7
2023-05-03T15:04:58.616Z,21.6
2023-05-03T15:06:58.752Z,22.0
2023-05-03T15:09:01.579Z,21.6
2023-05-03T15:10:58.655Z,22.0
2023-05-03T15:12:58.783Z,22.0
2023-05-03T15:14:58.749Z,22.2
2023-05-03T15:16:58.635Z,22.2
2023-05-03T15:18:58.645Z,21.9
2023-05-03T15:21:01.794Z,22.1
2023-05-03T15:22:58.586Z,21.8
2023-05-03T15:24:58.666Z,21.6
2023-05-03T15:26:58.661Z,21.7
2023-05-03T15:28:58.763Z,21.8
2023-05-03T15:30:58.727Z,21.8
2023-05-03T15:32:58.893Z,21.9
2023-05-03T15:34:58.596Z,21.7
2023-05-03T15:36:58.600Z,21.6
2023-05-03T15:38:58.640Z,21.4
2023-05-03T15:40:58.684Z,12.0
2023-05-03T15:42:58.594Z,17.3
2023-05-03T15:44:58.635Z,17.0
2023-05-03T15:46:58.636Z,17.9
2023-05-03T15:48:58.656Z,17.2
2023-05-03T15:50:58.926Z,16.9
2023-05-03T15:52:58.733Z,18.0
2023-05-03T15:54:58.748Z,19.3
2023-05-03T15:56:58.769Z,19.9
2023-05-03T15:59:01.813Z,19.8
2023-05-03T16:00:58.575Z,19.4
2023-05-03T16:02:58.727Z,18.8
2023-05-03T16:04:58.698Z,18.4
2023-05-03T16:06:58.839Z,18.4
2023-05-03T16:08:59.003Z,18.6
2023-05-03T16:11:02.127Z,18.2
2023-05-03T16:12:59.099Z,18.1
2023-05-03T16:14:59.956Z,18.1
2023-05-03T16:17:06.812Z,18.1
2023-05-03T16:18:59.345Z,18.3
2023-05-03T16:20:59.375Z,18.0
2023-05-03T16:22:59.338Z,18.5
2023-05-03T16:24:59.224Z,18.6
2023-05-03T16:26:59.030Z,18.8
2023-05-03T16:28:59.205Z,18.7
2023-05-03T16:30:59.128Z,18.6
2023-05-03T16:32:59.491Z,18.5
2023-05-03T16:34:59.373Z,18.6
2023-05-03T16:36:59.091Z,18.4
2023-05-03T16:38:58.947Z,18.4
2023-05-03T16:42:04.583Z,18.8
2023-05-03T16:43:58.917Z,18.7
2023-05-03T16:45:58.711Z,18.7
2023-05-03T16:47:58.989Z,18.8
2023-05-03T16:49:58.782Z,19.0
2023-05-03T16:51:58.738Z,19.0
2023-05-03T16:53:58.767Z,19.0
2023-05-03T16:55:58.634Z,18.9
2023-05-03T16:57:58.680Z,18.6
2023-05-03T16:59:58.761Z,18.6
2023-05-03T17:01:58.674Z,18.7
2023-05-03T17:03:58.748Z,18.8
2023-05-03T17:05:58.791Z,18.8
2023-05-03T17:07:58.810Z,19.1
2023-05-03T17:09:59.150Z,19.1
2023-05-03T17:11:58.668Z,19.4
2023-05-03T17:14:01.932Z,19.6
2023-05-03T17:15:58.776Z,19.6
2023-05-03T17:17:58.737Z,19.8
2023-05-03T17:19:58.838Z,19.8
2023-05-03T17:21:58.969Z,19.8
2023-05-03T17:23:58.726Z,19.6
2023-05-03T17:25:58.741Z,19.5
2023-05-03T17:27:58.699Z,19.5
2023-05-03T17:29:58.716Z,19.4
2023-05-03T17:31:58.883Z,19.5
2023-05-03T17:33:58.725Z,19.6
2023-05-03T17:35:58.708Z,19.7
2023-05-03T17:37:58.763Z,19.8
2023-05-03T17:39:58.668Z,19.7
2023-05-03T17:42:00.082Z,19.5
2023-05-03T17:43:58.705Z,19.7
2023-05-03T17:45:58.751Z,19.9
2023-05-03T17:47:58.908Z,20.0
2023-05-03T17:49:58.718Z,20.0
2023-05-03T17:52:00.788Z,20.2
2023-05-03T17:53:58.696Z,20.0
2023-05-03T17:55:58.802Z,20.0
2023-05-03T17:57:58.704Z,20.0
2023-05-03T17:59:58.847Z,20.0
2023-05-03T18:01:58.720Z,20.3
2023-05-03T18:03:58.838Z,20.5
2023-05-03T18:05:58.842Z,20.8
2023-05-03T18:07:58.880Z,20.6
2023-05-03T18:10:01.327Z,20.7
2023-05-03T18:11:58.811Z,20.7
2023-05-03T18:13:58.853Z,20.5
2023-05-03T18:16:01.817Z,20.4
2023-05-03T18:17:58.865Z,20.4
2023-05-03T18:19:58.943Z,20.4
2023-05-03T18:21:58.743Z,20.3
2023-05-03T18:23:58.817Z,20.4
2023-05-03T18:25:58.704Z,20.3
2023-05-03T18:27:58.690Z,20.4
2023-05-03T18:29:59.099Z,20.6
2023-05-03T18:31:58.841Z,20.8
2023-05-03T18:33:58.772Z,21.0
2023-05-03T18:35:58.696Z,20.8
2023-05-03T18:37:58.706Z,21.0
2023-05-03T18:39:58.796Z,21.1
2023-05-03T18:41:58.730Z,21.2
2023-05-03T18:43:59.022Z,21.1
2023-05-03T18:45:59.062Z,21.1
2023-05-03T18:47:58.806Z,21.2
2023-05-03T18:49:58.707Z,21.6
2023-05-03T18:51:58.779Z,21.3
2023-05-03T18:53:58.777Z,21.4
2023-05-03T18:55:58.758Z,21.3
2023-05-03T18:57:58.812Z,21.4
2023-05-03T19:00:01.231Z,21.2
2023-05-03T19:01:58.726Z,21.1
2023-05-03T19:03:58.957Z,20.9
2023-05-03T19:05:58.731Z,21.0
2023-05-03T19:07:58.766Z,20.8
2023-05-03T19:09:58.864Z,20.8
2023-05-03T19:11:58.742Z,20.8
2023-05-03T19:13:59.101Z,20.7
2023-05-03T19:15:58.756Z,20.7
2023-05-03T19:18:02.577Z,20.5
2023-05-03T19:19:58.812Z,20.6
2023-05-03T19:21:58.732Z,20.6
2023-05-03T19:23:58.764Z,20.6
2023-05-03T19:25:58.780Z,20.7
2023-05-03T19:28:03.651Z,20.5
2023-05-03T19:29:59.160Z,20.3
2023-05-03T19:31:58.808Z,20.3
2023-05-03T19:33:59.055Z,19.9
2023-05-03T19:35:58.812Z,20.2
2023-05-03T19:37:58.804Z,19.9
2023-05-03T19:39:58.809Z,19.8
2023-05-03T19:41:58.808Z,19.6
2023-05-03T19:43:58.917Z,19.5
2023-05-03T19:45:58.903Z,19.7
2023-05-03T19:47:58.792Z,19.2
2023-05-03T19:49:58.824Z,18.8
2023-05-03T19:51:58.819Z,19.0
2023-05-03T19:53:58.809Z,18.9
2023-05-03T19:55:58.843Z,19.0
2023-05-03T19:57:58.773Z,19.1
2023-05-03T19:59:58.798Z,19.5
2023-05-03T20:01:58.826Z,19.3
2023-05-03T20:03:58.888Z,19.5
2023-05-03T20:05:58.802Z,19.4
2023-05-03T20:07:58.857Z,19.4
2023-05-03T20:09:58.836Z,19.3
2023-05-03T20:11:58.903Z,19.1
2023-05-03T20:13:58.871Z,19.3
2023-05-03T20:15:58.785Z,19.3
2023-05-03T20:18:01.519Z,19.2
2023-05-03T20:20:02.741Z,19.2
2023-05-03T20:21:58.835Z,19.5
2023-05-03T20:23:58.940Z,19.5
2023-05-03T20:25:59.635Z,19.5
2023-05-03T20:27:58.866Z,19.4
2023-05-03T20:29:59.036Z,19.5
2023-05-03T20:32:00.703Z,19.4
2023-05-03T20:34:58.836Z,19.5
2023-05-03T20:36:58.907Z,19.5
2023-05-03T20:38:59.012Z,19.6
2023-05-03T20:40:59.158Z,19.5
2023-05-03T20:42:58.997Z,19.6
2023-05-03T20:44:59.474Z,19.4
2023-05-03T20:48:58.965Z,19.6
2023-05-03T20:51:02.163Z,19.7
2023-05-03T20:52:58.820Z,19.7
2023-05-03T20:54:59.172Z,19.5
2023-05-03T20:58:23.480Z,19.6
2023-05-03T21:00:23.382Z,19.4
2023-05-03T21:02:23.582Z,19.4
2023-05-03T21:04:23.445Z,19.4
2023-05-03T21:06:23.476Z,19.5
2023-05-03T21:08:23.446Z,19.4
2023-05-03T21:10:23.510Z,19.3
2023-05-03T21:12:23.408Z,19.5
2023-05-03T21:14:23.433Z,19.5
2023-05-03T21:16:25.685Z,19.6
2023-05-03T21:18:23.384Z,19.7
2023-05-03T21:20:23.627Z,19.8
2023-05-03T21:22:23.521Z,19.7
2023-05-03T21:24:25.972Z,22.0
2023-05-03T21:26:23.495Z,23.0
2023-05-03T21:28:23.452Z,21.5
2023-05-03T21:30:23.420Z,20.8
2023-05-03T21:32:23.488Z,21.6
2023-05-03T21:34:23.511Z,21.6
2023-05-03T21:36:23.411Z,21.6
2023-05-03T21:38:23.577Z,21.4
2023-05-03T21:40:23.392Z,21.4
2023-05-03T21:42:23.676Z,21.0
2023-05-03T21:44:23.409Z,21.0
2023-05-03T21:46:23.511Z,20.7
2023-05-03T21:48:23.471Z,20.7
2023-05-03T21:50:23.506Z,20.8
2023-05-03T21:52:23.479Z,20.9
2023-05-03T21:54:23.491Z,20.7
2023-05-03T21:56:24.411Z,20.2
2023-05-03T21:58:23.465Z,19.9
2023-05-03T22:00:23.440Z,20.6
2023-05-03T22:02:23.704Z,20.8
2023-05-03T22:05:23.428Z,20.8
2023-05-03T22:07:23.458Z,20.5
2023-05-03T22:09:23.446Z,20.4
2023-05-03T22:11:23.598Z,20.2
2023-05-03T22:13:23.463Z,20.1
2023-05-03T22:15:23.437Z,20.1
2023-05-03T22:17:23.525Z,19.9
2023-05-03T22:19:23.504Z,20.2
2023-05-03T22:21:23.492Z,20.0
2023-05-03T22:23:23.431Z,20.1
2023-05-03T22:25:23.551Z,29.5
2023-05-03T22:27:23.428Z,25.3
2023-05-03T22:29:23.522Z,24.2
2023-05-03T22:31:23.450Z,22.6
2023-05-03T22:33:23.555Z,22.4
2023-05-03T22:35:23.512Z,21.6
2023-05-03T22:37:23.603Z,22.1
2023-05-03T22:39:23.455Z,21.7
2023-05-03T22:41:23.532Z,21.3
2023-05-03T22:43:23.823Z,21.1
2023-05-03T22:45:23.585Z,20.5
2023-05-03T22:47:23.533Z,20.5
2023-05-03T22:49:23.553Z,20.8
2023-05-03T22:51:23.495Z,20.5
2023-05-03T22:53:23.606Z,20.4
2023-05-03T22:55:23.483Z,20.4
2023-05-03T22:57:23.534Z,20.0
2023-05-03T22:59:27.231Z,20.1
2023-05-03T23:01:23.490Z,20.4
2023-05-03T23:03:23.668Z,20.5
2023-05-03T23:05:23.540Z,20.6
2023-05-03T23:07:23.550Z,20.7
2023-05-03T23:09:23.619Z,20.9
2023-05-03T23:11:23.645Z,20.7
2023-05-03T23:13:23.489Z,20.9
2023-05-03T23:15:23.467Z,20.8
2023-05-03T23:17:23.637Z,21.0
2023-05-03T23:19:23.561Z,20.9
2023-05-03T23:21:26.425Z,21.1
2023-05-03T23:23:23.530Z,21.3
2023-05-03T23:25:23.480Z,21.0
2023-05-03T23:27:23.514Z,20.9
2023-05-03T23:29:23.552Z,21.1
2023-05-03T23:31:23.650Z,21.2
2023-05-03T23:33:23.605Z,21.4
2023-05-03T23:35:23.554Z,21.5
2023-05-03T23:37:23.693Z,21.2
2023-05-03T23:39:23.520Z,21.3
2023-05-03T23:41:23.520Z,21.4
2023-05-03T23:43:23.517Z,21.4
2023-05-03T23:45:23.515Z,21.6
2023-05-03T23:47:24.244Z,21.8
2023-05-03T23:49:23.521Z,21.6
2023-05-03T23:51:23.642Z,21.8
2023-05-03T23:53:23.835Z,22.0
2023-05-03T23:55:23.517Z,22.0
2023-05-03T23:57:23.520Z,22.1
2023-05-03T23:59:23.551Z,22.0
